sensor_id;sensor_type;location;lat;lon;timestamp;temperature;humidity
36292;DHT22;22327;51.208;6.418;2022-07-09T00:00:02;20.00;90.20
36292;DHT22;22327;51.208;6.418;2022-07-09T00:02:28;20.00;90.50
36292;DHT22;22327;51.208;6.418;2022-07-09T00:04:54;20.00;90.80
36292;DHT22;22327;51.208;6.418;2022-07-09T00:07:19;19.90;90.90
36292;DHT22;22327;51.208;6.418;2022-07-09T00:09:45;19.80;91.00
36292;DHT22;22327;51.208;6.418;2022-07-09T00:12:10;19.90;91.10
36292;DHT22;22327;51.208;6.418;2022-07-09T00:14:36;19.80;91.10
36292;DHT22;22327;51.208;6.418;2022-07-09T00:17:01;19.80;91.00
36292;DHT22;22327;51.208;6.418;2022-07-09T00:19:27;19.80;91.00
36292;DHT22;22327;51.208;6.418;2022-07-09T00:21:53;19.80;91.20
36292;DHT22;22327;51.208;6.418;2022-07-09T00:24:18;19.80;91.20
36292;DHT22;22327;51.208;6.418;2022-07-09T00:26:44;19.80;91.10
36292;DHT22;22327;51.208;6.418;2022-07-09T00:29:09;19.80;91.10
36292;DHT22;22327;51.208;6.418;2022-07-09T00:31:35;19.80;91.10
36292;DHT22;22327;51.208;6.418;2022-07-09T00:34:01;19.70;91.30
36292;DHT22;22327;51.208;6.418;2022-07-09T00:36:26;19.70;91.40
36292;DHT22;22327;51.208;6.418;2022-07-09T00:38:52;19.70;91.50
36292;DHT22;22327;51.208;6.418;2022-07-09T00:41:18;19.60;91.40
36292;DHT22;22327;51.208;6.418;2022-07-09T00:43:48;19.70;91.40
36292;DHT22;22327;51.208;6.418;2022-07-09T00:46:14;19.60;91.50
36292;DHT22;22327;51.208;6.418;2022-07-09T00:48:39;19.60;91.60
36292;DHT22;22327;51.208;6.418;2022-07-09T00:51:06;19.50;91.90
36292;DHT22;22327;51.208;6.418;2022-07-09T00:53:32;19.50;92.00
36292;DHT22;22327;51.208;6.418;2022-07-09T00:55:58;19.50;92.00
36292;DHT22;22327;51.208;6.418;2022-07-09T00:58:25;19.50;91.90
36292;DHT22;22327;51.208;6.418;2022-07-09T01:00:51;19.40;91.90
36292;DHT22;22327;51.208;6.418;2022-07-09T01:03:17;19.40;92.00
36292;DHT22;22327;51.208;6.418;2022-07-09T01:05:43;19.40;92.20
36292;DHT22;22327;51.208;6.418;2022-07-09T01:08:08;19.40;92.30
36292;DHT22;22327;51.208;6.418;2022-07-09T01:10:35;19.30;92.20
36292;DHT22;22327;51.208;6.418;2022-07-09T01:13:02;19.30;92.50
36292;DHT22;22327;51.208;6.418;2022-07-09T01:15:28;19.30;92.50
36292;DHT22;22327;51.208;6.418;2022-07-09T01:17:54;19.30;92.60
36292;DHT22;22327;51.208;6.418;2022-07-09T01:20:27;19.30;92.60
36292;DHT22;22327;51.208;6.418;2022-07-09T01:22:54;19.40;92.60
36292;DHT22;22327;51.208;6.418;2022-07-09T01:25:31;19.30;92.60
36292;DHT22;22327;51.208;6.418;2022-07-09T01:27:57;19.30;92.60
36292;DHT22;22327;51.208;6.418;2022-07-09T01:30:24;19.30;92.60
36292;DHT22;22327;51.208;6.418;2022-07-09T01:32:51;19.30;92.70
36292;DHT22;22327;51.208;6.418;2022-07-09T01:35:18;19.30;92.80
36292;DHT22;22327;51.208;6.418;2022-07-09T01:37:43;19.30;92.90
36292;DHT22;22327;51.208;6.418;2022-07-09T01:40:09;19.30;92.90
36292;DHT22;22327;51.208;6.418;2022-07-09T01:42:35;19.30;92.90
36292;DHT22;22327;51.208;6.418;2022-07-09T01:45:01;19.30;92.80
36292;DHT22;22327;51.208;6.418;2022-07-09T01:47:26;19.30;92.80
36292;DHT22;22327;51.208;6.418;2022-07-09T01:49:52;19.40;92.70
36292;DHT22;22327;51.208;6.418;2022-07-09T01:52:17;19.40;92.70
36292;DHT22;22327;51.208;6.418;2022-07-09T01:54:43;19.40;92.70
36292;DHT22;22327;51.208;6.418;2022-07-09T01:57:08;19.40;92.70
36292;DHT22;22327;51.208;6.418;2022-07-09T01:59:34;19.40;92.80
36292;DHT22;22327;51.208;6.418;2022-07-09T02:01:59;19.40;92.80
36292;DHT22;22327;51.208;6.418;2022-07-09T02:04:26;19.40;92.70
36292;DHT22;22327;51.208;6.418;2022-07-09T02:06:51;19.40;92.60
36292;DHT22;22327;51.208;6.418;2022-07-09T02:09:17;19.40;92.50
36292;DHT22;22327;51.208;6.418;2022-07-09T02:11:43;19.30;92.50
36292;DHT22;22327;51.208;6.418;2022-07-09T02:14:08;19.30;92.50
36292;DHT22;22327;51.208;6.418;2022-07-09T02:16:34;19.30;92.70
36292;DHT22;22327;51.208;6.418;2022-07-09T02:19:00;19.30;92.90
36292;DHT22;22327;51.208;6.418;2022-07-09T02:21:26;19.30;92.90
36292;DHT22;22327;51.208;6.418;2022-07-09T02:23:51;19.30;93.00
36292;DHT22;22327;51.208;6.418;2022-07-09T02:26:22;19.30;93.00
36292;DHT22;22327;51.208;6.418;2022-07-09T02:28:47;19.20;93.00
36292;DHT22;22327;51.208;6.418;2022-07-09T02:31:13;19.20;92.80
36292;DHT22;22327;51.208;6.418;2022-07-09T02:33:38;19.20;92.90
36292;DHT22;22327;51.208;6.418;2022-07-09T02:36:04;19.20;93.00
36292;DHT22;22327;51.208;6.418;2022-07-09T02:38:30;19.10;93.10
36292;DHT22;22327;51.208;6.418;2022-07-09T02:40:55;19.00;93.10
36292;DHT22;22327;51.208;6.418;2022-07-09T02:43:21;19.00;93.20
36292;DHT22;22327;51.208;6.418;2022-07-09T02:45:46;19.00;93.30
36292;DHT22;22327;51.208;6.418;2022-07-09T02:48:12;19.00;93.40
36292;DHT22;22327;51.208;6.418;2022-07-09T02:50:37;18.90;93.50
36292;DHT22;22327;51.208;6.418;2022-07-09T02:53:03;18.90;93.70
36292;DHT22;22327;51.208;6.418;2022-07-09T02:55:28;18.80;93.80
36292;DHT22;22327;51.208;6.418;2022-07-09T02:57:54;18.80;93.80
36292;DHT22;22327;51.208;6.418;2022-07-09T03:00:19;18.80;93.80
36292;DHT22;22327;51.208;6.418;2022-07-09T03:02:45;18.80;93.80
36292;DHT22;22327;51.208;6.418;2022-07-09T03:05:10;18.80;93.80
36292;DHT22;22327;51.208;6.418;2022-07-09T03:07:36;18.80;93.90
36292;DHT22;22327;51.208;6.418;2022-07-09T03:10:01;18.70;94.00
36292;DHT22;22327;51.208;6.418;2022-07-09T03:12:27;18.70;94.20
36292;DHT22;22327;51.208;6.418;2022-07-09T03:14:52;18.70;94.20
36292;DHT22;22327;51.208;6.418;2022-07-09T03:17:18;18.70;94.20
36292;DHT22;22327;51.208;6.418;2022-07-09T03:19:44;18.60;94.20
36292;DHT22;22327;51.208;6.418;2022-07-09T03:22:09;18.60;94.30
36292;DHT22;22327;51.208;6.418;2022-07-09T03:24:35;18.60;94.50
36292;DHT22;22327;51.208;6.418;2022-07-09T03:27:00;18.50;94.50
36292;DHT22;22327;51.208;6.418;2022-07-09T03:29:26;18.60;94.60
36292;DHT22;22327;51.208;6.418;2022-07-09T03:31:51;18.50;94.70
36292;DHT22;22327;51.208;6.418;2022-07-09T03:34:17;18.50;94.80
36292;DHT22;22327;51.208;6.418;2022-07-09T03:36:42;18.50;94.90
36292;DHT22;22327;51.208;6.418;2022-07-09T03:39:08;18.50;94.90
36292;DHT22;22327;51.208;6.418;2022-07-09T03:41:35;18.50;95.00
36292;DHT22;22327;51.208;6.418;2022-07-09T03:44:00;18.50;95.10
36292;DHT22;22327;51.208;6.418;2022-07-09T03:46:26;18.50;95.00
36292;DHT22;22327;51.208;6.418;2022-07-09T03:48:51;18.50;95.00
36292;DHT22;22327;51.208;6.418;2022-07-09T03:51:17;18.60;95.10
36292;DHT22;22327;51.208;6.418;2022-07-09T03:53:42;18.60;95.10
36292;DHT22;22327;51.208;6.418;2022-07-09T03:56:08;18.70;95.10
36292;DHT22;22327;51.208;6.418;2022-07-09T03:58:34;18.70;95.20
36292;DHT22;22327;51.208;6.418;2022-07-09T04:01:01;18.80;95.60
36292;DHT22;22327;51.208;6.418;2022-07-09T04:03:26;18.90;95.60
36292;DHT22;22327;51.208;6.418;2022-07-09T04:05:52;19.10;95.30
36292;DHT22;22327;51.208;6.418;2022-07-09T04:08:17;19.30;94.80
36292;DHT22;22327;51.208;6.418;2022-07-09T04:10:43;19.30;94.30
36292;DHT22;22327;51.208;6.418;2022-07-09T04:13:08;19.40;94.20
36292;DHT22;22327;51.208;6.418;2022-07-09T04:15:34;19.40;94.20
36292;DHT22;22327;51.208;6.418;2022-07-09T04:17:59;19.60;94.30
36292;DHT22;22327;51.208;6.418;2022-07-09T04:20:25;19.80;94.20
36292;DHT22;22327;51.208;6.418;2022-07-09T04:22:51;20.10;93.80
36292;DHT22;22327;51.208;6.418;2022-07-09T04:25:17;20.40;93.90
36292;DHT22;22327;51.208;6.418;2022-07-09T04:27:43;20.90;93.30
36292;DHT22;22327;51.208;6.418;2022-07-09T04:30:09;21.60;92.30
36292;DHT22;22327;51.208;6.418;2022-07-09T04:32:36;22.30;90.90
36292;DHT22;22327;51.208;6.418;2022-07-09T04:35:02;23.10;88.90
36292;DHT22;22327;51.208;6.418;2022-07-09T04:37:27;23.70;85.70
36292;DHT22;22327;51.208;6.418;2022-07-09T04:39:53;24.50;82.00
36292;DHT22;22327;51.208;6.418;2022-07-09T04:42:18;25.00;79.80
36292;DHT22;22327;51.208;6.418;2022-07-09T04:44:45;25.40;77.10
36292;DHT22;22327;51.208;6.418;2022-07-09T04:47:11;25.80;74.40
36292;DHT22;22327;51.208;6.418;2022-07-09T04:49:36;26.10;73.60
36292;DHT22;22327;51.208;6.418;2022-07-09T04:52:02;26.40;72.20
36292;DHT22;22327;51.208;6.418;2022-07-09T04:54:28;26.90;70.90
36292;DHT22;22327;51.208;6.418;2022-07-09T04:56:53;27.40;69.70
36292;DHT22;22327;51.208;6.418;2022-07-09T04:59:19;27.90;67.20
36292;DHT22;22327;51.208;6.418;2022-07-09T05:01:45;28.40;64.30
36292;DHT22;22327;51.208;6.418;2022-07-09T05:04:11;28.60;63.10
36292;DHT22;22327;51.208;6.418;2022-07-09T05:06:37;29.00;60.90
36292;DHT22;22327;51.208;6.418;2022-07-09T05:09:03;29.20;60.40
36292;DHT22;22327;51.208;6.418;2022-07-09T05:11:28;29.40;59.00
36292;DHT22;22327;51.208;6.418;2022-07-09T05:13:54;29.80;57.60
36292;DHT22;22327;51.208;6.418;2022-07-09T05:16:19;30.00;56.60
36292;DHT22;22327;51.208;6.418;2022-07-09T05:18:45;30.20;56.20
36292;DHT22;22327;51.208;6.418;2022-07-09T05:21:10;30.40;55.40
36292;DHT22;22327;51.208;6.418;2022-07-09T05:23:36;30.70;54.30
36292;DHT22;22327;51.208;6.418;2022-07-09T05:26:02;31.00;53.60
36292;DHT22;22327;51.208;6.418;2022-07-09T05:28:27;31.30;53.20
36292;DHT22;22327;51.208;6.418;2022-07-09T05:30:53;31.50;51.90
36292;DHT22;22327;51.208;6.418;2022-07-09T05:33:18;31.60;52.20
36292;DHT22;22327;51.208;6.418;2022-07-09T05:35:44;31.80;51.20
36292;DHT22;22327;51.208;6.418;2022-07-09T05:38:10;31.90;50.80
36292;DHT22;22327;51.208;6.418;2022-07-09T05:40:36;32.20;50.10
36292;DHT22;22327;51.208;6.418;2022-07-09T05:43:01;32.50;49.60
36292;DHT22;22327;51.208;6.418;2022-07-09T05:45:27;32.80;48.60
36292;DHT22;22327;51.208;6.418;2022-07-09T05:47:52;32.90;47.70
36292;DHT22;22327;51.208;6.418;2022-07-09T05:50:18;33.10;47.30
36292;DHT22;22327;51.208;6.418;2022-07-09T05:52:44;33.20;47.20
36292;DHT22;22327;51.208;6.418;2022-07-09T05:55:09;33.50;46.60
36292;DHT22;22327;51.208;6.418;2022-07-09T05:57:35;33.80;45.40
36292;DHT22;22327;51.208;6.418;2022-07-09T06:00:01;34.10;45.00
36292;DHT22;22327;51.208;6.418;2022-07-09T06:02:29;34.30;44.20
36292;DHT22;22327;51.208;6.418;2022-07-09T06:04:54;34.50;43.40
36292;DHT22;22327;51.208;6.418;2022-07-09T06:07:20;34.40;42.70
36292;DHT22;22327;51.208;6.418;2022-07-09T06:09:45;34.10;43.70
36292;DHT22;22327;51.208;6.418;2022-07-09T06:12:11;34.20;43.70
36292;DHT22;22327;51.208;6.418;2022-07-09T06:14:37;34.20;43.20
36292;DHT22;22327;51.208;6.418;2022-07-09T06:17:03;34.40;43.20
36292;DHT22;22327;51.208;6.418;2022-07-09T06:19:34;34.70;42.70
36292;DHT22;22327;51.208;6.418;2022-07-09T06:22:00;35.00;41.50
36292;DHT22;22327;51.208;6.418;2022-07-09T06:24:26;35.20;40.60
36292;DHT22;22327;51.208;6.418;2022-07-09T06:26:52;35.20;40.40
36292;DHT22;22327;51.208;6.418;2022-07-09T06:29:18;35.40;39.60
36292;DHT22;22327;51.208;6.418;2022-07-09T06:31:44;35.60;39.40
36292;DHT22;22327;51.208;6.418;2022-07-09T06:34:10;35.70;38.70
36292;DHT22;22327;51.208;6.418;2022-07-09T06:36:37;35.60;38.50
36292;DHT22;22327;51.208;6.418;2022-07-09T06:39:03;36.10;38.00
36292;DHT22;22327;51.208;6.418;2022-07-09T06:41:47;36.30;37.30
36292;DHT22;22327;51.208;6.418;2022-07-09T06:44:12;36.50;37.00
36292;DHT22;22327;51.208;6.418;2022-07-09T06:46:38;36.80;36.10
36292;DHT22;22327;51.208;6.418;2022-07-09T06:49:04;36.80;36.10
36292;DHT22;22327;51.208;6.418;2022-07-09T06:51:30;36.50;35.60
36292;DHT22;22327;51.208;6.418;2022-07-09T06:53:55;36.40;36.10
36292;DHT22;22327;51.208;6.418;2022-07-09T06:56:21;36.30;36.00
36292;DHT22;22327;51.208;6.418;2022-07-09T06:58:47;36.20;36.50
36292;DHT22;22327;51.208;6.418;2022-07-09T07:01:13;36.30;36.00
36292;DHT22;22327;51.208;6.418;2022-07-09T07:03:39;36.30;35.80
36292;DHT22;22327;51.208;6.418;2022-07-09T07:06:04;36.30;35.90
36292;DHT22;22327;51.208;6.418;2022-07-09T07:08:30;36.30;36.10
36292;DHT22;22327;51.208;6.418;2022-07-09T07:10:55;36.30;36.00
36292;DHT22;22327;51.208;6.418;2022-07-09T07:13:21;36.40;35.60
36292;DHT22;22327;51.208;6.418;2022-07-09T07:15:46;36.40;35.60
36292;DHT22;22327;51.208;6.418;2022-07-09T07:18:15;36.50;35.40
36292;DHT22;22327;51.208;6.418;2022-07-09T07:20:40;36.60;35.10
36292;DHT22;22327;51.208;6.418;2022-07-09T07:23:06;36.50;34.80
36292;DHT22;22327;51.208;6.418;2022-07-09T07:25:31;35.90;35.30
36292;DHT22;22327;51.208;6.418;2022-07-09T07:27:57;35.50;36.10
36292;DHT22;22327;51.208;6.418;2022-07-09T07:30:23;35.30;37.10
36292;DHT22;22327;51.208;6.418;2022-07-09T07:32:49;35.60;36.90
36292;DHT22;22327;51.208;6.418;2022-07-09T07:35:14;35.90;36.60
36292;DHT22;22327;51.208;6.418;2022-07-09T07:37:40;35.10;35.90
36292;DHT22;22327;51.208;6.418;2022-07-09T07:40:06;35.00;37.70
36292;DHT22;22327;51.208;6.418;2022-07-09T07:42:31;35.70;37.20
36292;DHT22;22327;51.208;6.418;2022-07-09T07:44:57;36.60;36.00
36292;DHT22;22327;51.208;6.418;2022-07-09T07:47:23;37.50;34.70
36292;DHT22;22327;51.208;6.418;2022-07-09T07:49:48;38.00;33.60
36292;DHT22;22327;51.208;6.418;2022-07-09T07:52:14;38.20;33.00
36292;DHT22;22327;51.208;6.418;2022-07-09T07:54:39;37.90;33.20
36292;DHT22;22327;51.208;6.418;2022-07-09T07:57:05;38.00;33.10
36292;DHT22;22327;51.208;6.418;2022-07-09T07:59:30;38.00;32.90
36292;DHT22;22327;51.208;6.418;2022-07-09T08:01:56;37.50;31.80
36292;DHT22;22327;51.208;6.418;2022-07-09T08:04:22;36.50;33.00
36292;DHT22;22327;51.208;6.418;2022-07-09T08:06:47;35.70;34.40
36292;DHT22;22327;51.208;6.418;2022-07-09T08:09:13;35.30;36.20
36292;DHT22;22327;51.208;6.418;2022-07-09T08:11:39;35.10;37.00
36292;DHT22;22327;51.208;6.418;2022-07-09T08:14:05;35.20;36.70
36292;DHT22;22327;51.208;6.418;2022-07-09T08:16:32;35.40;36.00
36292;DHT22;22327;51.208;6.418;2022-07-09T08:19:13;35.10;36.10
36292;DHT22;22327;51.208;6.418;2022-07-09T08:21:39;34.70;37.60
36292;DHT22;22327;51.208;6.418;2022-07-09T08:24:05;34.90;37.30
36292;DHT22;22327;51.208;6.418;2022-07-09T08:26:31;35.20;36.70
36292;DHT22;22327;51.208;6.418;2022-07-09T08:28:57;35.40;36.40
36292;DHT22;22327;51.208;6.418;2022-07-09T08:31:23;35.50;36.30
36292;DHT22;22327;51.208;6.418;2022-07-09T08:33:49;36.00;36.70
36292;DHT22;22327;51.208;6.418;2022-07-09T08:36:15;36.50;34.60
36292;DHT22;22327;51.208;6.418;2022-07-09T08:38:41;36.80;35.10
36292;DHT22;22327;51.208;6.418;2022-07-09T08:41:07;37.30;34.40
36292;DHT22;22327;51.208;6.418;2022-07-09T08:43:37;37.50;33.80
36292;DHT22;22327;51.208;6.418;2022-07-09T08:46:04;37.60;32.80
36292;DHT22;22327;51.208;6.418;2022-07-09T08:48:36;37.20;33.40
36292;DHT22;22327;51.208;6.418;2022-07-09T08:51:02;37.00;33.50
36292;DHT22;22327;51.208;6.418;2022-07-09T08:53:28;37.00;33.80
36292;DHT22;22327;51.208;6.418;2022-07-09T08:55:56;37.00;32.30
36292;DHT22;22327;51.208;6.418;2022-07-09T08:58:23;36.70;33.90
36292;DHT22;22327;51.208;6.418;2022-07-09T09:00:52;36.90;33.00
36292;DHT22;22327;51.208;6.418;2022-07-09T09:03:18;36.90;33.60
36292;DHT22;22327;51.208;6.418;2022-07-09T09:05:45;37.10;32.40
36292;DHT22;22327;51.208;6.418;2022-07-09T09:08:20;36.60;32.40
36292;DHT22;22327;51.208;6.418;2022-07-09T09:10:48;36.30;32.70
36292;DHT22;22327;51.208;6.418;2022-07-09T09:13:15;36.60;32.90
36292;DHT22;22327;51.208;6.418;2022-07-09T09:15:42;37.00;31.90
36292;DHT22;22327;51.208;6.418;2022-07-09T09:18:08;37.60;31.30
36292;DHT22;22327;51.208;6.418;2022-07-09T09:20:34;37.80;31.00
36292;DHT22;22327;51.208;6.418;2022-07-09T09:23:00;38.40;30.60
36292;DHT22;22327;51.208;6.418;2022-07-09T09:25:28;38.50;30.40
36292;DHT22;22327;51.208;6.418;2022-07-09T09:27:55;38.80;29.90
36292;DHT22;22327;51.208;6.418;2022-07-09T09:30:22;39.10;29.80
36292;DHT22;22327;51.208;6.418;2022-07-09T09:33:01;39.40;29.40
36292;DHT22;22327;51.208;6.418;2022-07-09T09:35:32;39.10;29.60
36292;DHT22;22327;51.208;6.418;2022-07-09T09:37:58;38.80;29.60
36292;DHT22;22327;51.208;6.418;2022-07-09T09:40:24;38.00;30.30
36292;DHT22;22327;51.208;6.418;2022-07-09T09:42:50;37.50;30.90
36292;DHT22;22327;51.208;6.418;2022-07-09T09:45:17;36.90;31.50
36292;DHT22;22327;51.208;6.418;2022-07-09T09:47:48;35.90;32.60
36292;DHT22;22327;51.208;6.418;2022-07-09T09:50:21;35.30;34.60
36292;DHT22;22327;51.208;6.418;2022-07-09T09:52:48;35.40;34.80
36292;DHT22;22327;51.208;6.418;2022-07-09T09:55:17;35.50;34.20
36292;DHT22;22327;51.208;6.418;2022-07-09T09:57:43;35.40;34.40
36292;DHT22;22327;51.208;6.418;2022-07-09T10:00:12;35.60;34.60
36292;DHT22;22327;51.208;6.418;2022-07-09T10:02:44;35.80;34.40
36292;DHT22;22327;51.208;6.418;2022-07-09T10:05:11;35.50;34.10
36292;DHT22;22327;51.208;6.418;2022-07-09T10:07:36;35.20;34.60
36292;DHT22;22327;51.208;6.418;2022-07-09T10:10:06;34.90;35.60
36292;DHT22;22327;51.208;6.418;2022-07-09T10:12:36;34.60;35.70
36292;DHT22;22327;51.208;6.418;2022-07-09T10:15:08;34.40;36.20
36292;DHT22;22327;51.208;6.418;2022-07-09T10:17:39;34.30;36.80
36292;DHT22;22327;51.208;6.418;2022-07-09T10:20:08;34.10;36.80
36292;DHT22;22327;51.208;6.418;2022-07-09T10:22:40;33.70;37.30
36292;DHT22;22327;51.208;6.418;2022-07-09T10:25:11;33.60;37.90
36292;DHT22;22327;51.208;6.418;2022-07-09T10:27:47;33.30;38.40
36292;DHT22;22327;51.208;6.418;2022-07-09T10:30:27;33.00;39.00
36292;DHT22;22327;51.208;6.418;2022-07-09T10:36:13;32.30;40.30
36292;DHT22;22327;51.208;6.418;2022-07-09T10:38:38;31.90;41.50
36292;DHT22;22327;51.208;6.418;2022-07-09T10:41:04;31.70;41.30
36292;DHT22;22327;51.208;6.418;2022-07-09T10:43:40;31.40;42.10
36292;DHT22;22327;51.208;6.418;2022-07-09T10:46:10;31.20;42.60
36292;DHT22;22327;51.208;6.418;2022-07-09T10:48:37;31.20;42.80
36292;DHT22;22327;51.208;6.418;2022-07-09T10:51:03;31.10;42.80
36292;DHT22;22327;51.208;6.418;2022-07-09T10:53:29;31.00;43.20
36292;DHT22;22327;51.208;6.418;2022-07-09T10:55:55;30.90;43.30
36292;DHT22;22327;51.208;6.418;2022-07-09T10:58:23;30.60;44.40
36292;DHT22;22327;51.208;6.418;2022-07-09T11:00:57;30.70;44.40
36292;DHT22;22327;51.208;6.418;2022-07-09T11:03:27;30.70;44.30
36292;DHT22;22327;51.208;6.418;2022-07-09T11:05:53;30.80;44.00
36292;DHT22;22327;51.208;6.418;2022-07-09T11:08:19;30.80;43.80
36292;DHT22;22327;51.208;6.418;2022-07-09T11:10:45;30.80;44.40
36292;DHT22;22327;51.208;6.418;2022-07-09T11:13:11;30.70;44.70
36292;DHT22;22327;51.208;6.418;2022-07-09T11:15:37;30.50;44.60
36292;DHT22;22327;51.208;6.418;2022-07-09T11:18:05;30.50;44.90
36292;DHT22;22327;51.208;6.418;2022-07-09T11:20:45;30.50;44.80
36292;DHT22;22327;51.208;6.418;2022-07-09T11:23:11;30.50;44.60
36292;DHT22;22327;51.208;6.418;2022-07-09T11:25:37;30.40;44.80
36292;DHT22;22327;51.208;6.418;2022-07-09T11:28:03;30.30;45.20
36292;DHT22;22327;51.208;6.418;2022-07-09T11:30:29;30.20;45.40
36292;DHT22;22327;51.208;6.418;2022-07-09T11:32:56;30.20;45.70
36292;DHT22;22327;51.208;6.418;2022-07-09T11:35:32;30.20;45.50
36292;DHT22;22327;51.208;6.418;2022-07-09T11:38:03;30.10;45.70
36292;DHT22;22327;51.208;6.418;2022-07-09T11:40:29;30.10;46.40
36292;DHT22;22327;51.208;6.418;2022-07-09T11:42:55;29.80;46.20
36292;DHT22;22327;51.208;6.418;2022-07-09T11:45:25;29.60;46.70
36292;DHT22;22327;51.208;6.418;2022-07-09T11:48:02;29.60;47.30
36292;DHT22;22327;51.208;6.418;2022-07-09T11:50:28;29.80;47.90
36292;DHT22;22327;51.208;6.418;2022-07-09T11:52:54;29.90;47.60
36292;DHT22;22327;51.208;6.418;2022-07-09T11:55:21;30.00;47.00
36292;DHT22;22327;51.208;6.418;2022-07-09T11:57:55;30.10;47.10
36292;DHT22;22327;51.208;6.418;2022-07-09T12:00:23;30.00;47.30
36292;DHT22;22327;51.208;6.418;2022-07-09T12:02:49;29.80;47.50
36292;DHT22;22327;51.208;6.418;2022-07-09T12:05:34;29.60;48.00
36292;DHT22;22327;51.208;6.418;2022-07-09T12:08:03;29.70;48.70
36292;DHT22;22327;51.208;6.418;2022-07-09T12:10:38;29.90;49.00
36292;DHT22;22327;51.208;6.418;2022-07-09T12:13:05;30.00;48.30
36292;DHT22;22327;51.208;6.418;2022-07-09T12:15:31;30.10;48.10
36292;DHT22;22327;51.208;6.418;2022-07-09T12:21:19;29.70;48.10
36292;DHT22;22327;51.208;6.418;2022-07-09T12:23:45;29.10;49.90
36292;DHT22;22327;51.208;6.418;2022-07-09T12:26:11;28.70;52.00
36292;DHT22;22327;51.208;6.418;2022-07-09T12:28:36;28.30;52.50
36292;DHT22;22327;51.208;6.418;2022-07-09T12:31:02;28.00;53.50
36292;DHT22;22327;51.208;6.418;2022-07-09T12:33:27;27.80;54.60
36292;DHT22;22327;51.208;6.418;2022-07-09T12:35:53;27.70;55.20
36292;DHT22;22327;51.208;6.418;2022-07-09T12:38:18;27.60;55.40
36292;DHT22;22327;51.208;6.418;2022-07-09T12:40:44;27.60;56.00
36292;DHT22;22327;51.208;6.418;2022-07-09T12:43:10;27.60;55.90
36292;DHT22;22327;51.208;6.418;2022-07-09T12:45:35;27.60;56.00
36292;DHT22;22327;51.208;6.418;2022-07-09T12:48:01;27.80;56.60
36292;DHT22;22327;51.208;6.418;2022-07-09T12:50:26;27.90;56.80
36292;DHT22;22327;51.208;6.418;2022-07-09T12:52:52;28.00;56.80
36292;DHT22;22327;51.208;6.418;2022-07-09T12:55:17;28.00;56.80
36292;DHT22;22327;51.208;6.418;2022-07-09T12:57:43;28.00;56.50
36292;DHT22;22327;51.208;6.418;2022-07-09T13:00:09;28.00;56.60
36292;DHT22;22327;51.208;6.418;2022-07-09T13:02:35;28.00;56.90
36292;DHT22;22327;51.208;6.418;2022-07-09T13:05:01;28.20;57.10
36292;DHT22;22327;51.208;6.418;2022-07-09T13:07:26;28.40;56.80
36292;DHT22;22327;51.208;6.418;2022-07-09T13:09:52;28.60;55.80
36292;DHT22;22327;51.208;6.418;2022-07-09T13:12:17;28.90;55.80
36292;DHT22;22327;51.208;6.418;2022-07-09T13:14:44;29.00;54.50
36292;DHT22;22327;51.208;6.418;2022-07-09T13:17:09;29.10;53.90
36292;DHT22;22327;51.208;6.418;2022-07-09T13:19:35;29.00;53.40
36292;DHT22;22327;51.208;6.418;2022-07-09T13:22:00;28.90;52.80
36292;DHT22;22327;51.208;6.418;2022-07-09T13:24:26;28.80;53.10
36292;DHT22;22327;51.208;6.418;2022-07-09T13:26:52;29.00;53.20
36292;DHT22;22327;51.208;6.418;2022-07-09T13:29:17;28.80;51.20
36292;DHT22;22327;51.208;6.418;2022-07-09T13:31:43;28.80;51.70
36292;DHT22;22327;51.208;6.418;2022-07-09T13:34:08;28.80;52.00
36292;DHT22;22327;51.208;6.418;2022-07-09T13:36:34;28.90;51.80
36292;DHT22;22327;51.208;6.418;2022-07-09T13:38:59;28.90;51.40
36292;DHT22;22327;51.208;6.418;2022-07-09T13:41:25;28.80;51.60
36292;DHT22;22327;51.208;6.418;2022-07-09T13:43:50;28.90;51.80
36292;DHT22;22327;51.208;6.418;2022-07-09T13:46:16;28.90;51.20
36292;DHT22;22327;51.208;6.418;2022-07-09T13:48:42;28.70;51.60
36292;DHT22;22327;51.208;6.418;2022-07-09T13:51:07;28.60;51.00
36292;DHT22;22327;51.208;6.418;2022-07-09T13:53:33;28.30;51.50
36292;DHT22;22327;51.208;6.418;2022-07-09T13:55:58;28.20;51.80
36292;DHT22;22327;51.208;6.418;2022-07-09T13:58:24;28.20;52.10
36292;DHT22;22327;51.208;6.418;2022-07-09T14:00:50;28.20;52.00
36292;DHT22;22327;51.208;6.418;2022-07-09T14:03:16;28.10;52.10
36292;DHT22;22327;51.208;6.418;2022-07-09T14:05:41;27.90;51.40
36292;DHT22;22327;51.208;6.418;2022-07-09T14:08:07;27.90;52.00
36292;DHT22;22327;51.208;6.418;2022-07-09T14:10:33;27.90;51.80
36292;DHT22;22327;51.208;6.418;2022-07-09T14:13:00;27.80;51.00
36292;DHT22;22327;51.208;6.418;2022-07-09T14:15:25;27.80;52.20
36292;DHT22;22327;51.208;6.418;2022-07-09T14:17:51;27.90;51.40
36292;DHT22;22327;51.208;6.418;2022-07-09T14:20:17;28.00;51.20
36292;DHT22;22327;51.208;6.418;2022-07-09T14:22:44;28.10;50.80
36292;DHT22;22327;51.208;6.418;2022-07-09T14:25:10;28.20;50.60
36292;DHT22;22327;51.208;6.418;2022-07-09T14:27:35;28.10;50.40
36292;DHT22;22327;51.208;6.418;2022-07-09T14:30:01;28.00;50.60
36292;DHT22;22327;51.208;6.418;2022-07-09T14:32:27;27.90;51.40
36292;DHT22;22327;51.208;6.418;2022-07-09T14:34:52;27.90;51.00
36292;DHT22;22327;51.208;6.418;2022-07-09T14:37:18;28.10;51.40
36292;DHT22;22327;51.208;6.418;2022-07-09T14:39:43;28.10;50.60
36292;DHT22;22327;51.208;6.418;2022-07-09T14:42:09;28.10;50.60
36292;DHT22;22327;51.208;6.418;2022-07-09T14:44:34;27.90;49.50
36292;DHT22;22327;51.208;6.418;2022-07-09T14:47:00;27.80;50.10
36292;DHT22;22327;51.208;6.418;2022-07-09T14:49:26;27.80;50.50
36292;DHT22;22327;51.208;6.418;2022-07-09T14:51:55;27.70;49.80
36292;DHT22;22327;51.208;6.418;2022-07-09T14:54:20;27.50;49.90
36292;DHT22;22327;51.208;6.418;2022-07-09T14:56:47;27.40;50.20
36292;DHT22;22327;51.208;6.418;2022-07-09T14:59:12;27.40;49.60
36292;DHT22;22327;51.208;6.418;2022-07-09T15:01:44;27.20;49.50
36292;DHT22;22327;51.208;6.418;2022-07-09T15:04:10;27.20;50.30
36292;DHT22;22327;51.208;6.418;2022-07-09T15:06:35;27.40;50.20
36292;DHT22;22327;51.208;6.418;2022-07-09T15:09:01;27.50;50.00
36292;DHT22;22327;51.208;6.418;2022-07-09T15:11:27;27.60;48.30
36292;DHT22;22327;51.208;6.418;2022-07-09T15:13:53;27.70;48.90
36292;DHT22;22327;51.208;6.418;2022-07-09T15:16:18;27.80;48.70
36292;DHT22;22327;51.208;6.418;2022-07-09T15:18:44;27.80;47.70
36292;DHT22;22327;51.208;6.418;2022-07-09T15:21:10;27.80;48.20
36292;DHT22;22327;51.208;6.418;2022-07-09T15:23:36;27.70;48.00
36292;DHT22;22327;51.208;6.418;2022-07-09T15:26:02;27.60;48.00
36292;DHT22;22327;51.208;6.418;2022-07-09T15:28:27;27.60;47.90
36292;DHT22;22327;51.208;6.418;2022-07-09T15:30:53;27.50;47.80